Ames, Iowa
Current Conditions -  °F | °C
As of 12:53 PM on Thursday 23 Oct 2014 (Local Time) from KAMW Reporting Station
Scattered Clouds Scattered Clouds  
Wind Chill: 63°   Ceiling: Unl
Heat Index: 63°   Visibility: 10mi
Dew Point: 56°   Wind: 7mph
Humidity: 78%   Direction: 280°W
Pressure: 30.03"   Gusts: NA
Location:  42.03°N, 93.62°W
Report Text: KAMW 231753Z AUTO 28006KT 10SM SCT017 17/13 A3003 RMK AO2 SLP166 60037 T01720133 10178 20100 58002
Loading
Personal Weather Stations






























Interactive Weather Map New forecast layout! Learn more

10-Day Weather Forecast

Advertisements
Track Severe Weather on mobile